Latest Weather Observations for Mareeba

IDQ60801

Issued at 1:52 pm EST Saturday 29 February 2020 (issued every 10 minutes, with the page automatically refreshed every 10 minutes)

About weather observations | Map of weather stations | Latest weather observations for QLD | Other Formats
Station Details ID: 031210 Name: MAREEBA AIRPORT Lat: -17.07 Lon: 145.43 Height: 471.93 m
Data from the previous 72 hours. | See also: Recent months at Mareeba
Date/Time
EST
Temp
°C
App
Temp
°C
Dew
Point
°C
Rel
Hum
%
Delta-T
°C
Wind Press
QNH
hPa
Press
MSL
hPa
Rain since
9am
mm
Dir  Spd
km/h
Gust
km/h
Spd
kts
Gust
kts
29/01:30pm 31.0 34.2 22.3 60 6.0 N 9 15 5 8 1010.2 1007.0 0.0
29/01:00pm 30.5 32.8 21.3 58 6.3 N 11 17 6 9 1010.6 1007.4 0.0
29/12:30pm 30.5 34.0 22.1 61 5.8 N 7 9 4 5 1011.1 1007.8 0.0
29/12:00pm 30.3 34.5 21.7 60 5.9 WNW 2 7 1 4 1011.5 1008.2 0.0
29/11:30am 29.7 33.6 21.9 63 5.4 N 4 9 2 5 1011.9 1008.6 0.0
29/11:00am 29.1 33.3 21.8 64 5.0 WNW 2 6 1 3 1012.1 1008.8 0.0
29/10:30am 28.7 32.8 22.9 71 4.0 N 6 7 3 4 1012.4 1009.2 0.0
29/10:00am 28.5 32.7 22.5 70 4.1 NNW 4 9 2 5 1012.3 1009.1 0.0
29/09:30am 27.7 31.1 22.0 71 3.9 NNE 7 11 4 6 1012.4 1009.2 0.0
29/09:00am 27.9 32.6 23.3 76 3.2 E 4 9 2 5 1012.5 1009.3 14.8
29/08:30am 26.9 31.6 23.4 81 2.4 ESE 4 7 2 4 1012.5 1009.3 14.8
29/08:00am 25.4 30.6 22.9 86 1.7 CALM 0 0 0 0 1012.3 1009.1 14.8
29/07:30am 24.0 29.7 23.7 98 0.2 CALM 0 0 0 0 1011.9 1008.6 14.8
29/07:00am 23.5 28.9 23.2 98 0.2 CALM 0 0 0 0 1011.6 1008.3 14.8
29/06:30am 23.5 27.6 23.3 99 0.1 ESE 7 9 4 5 1011.3 1008.0 14.8
29/06:00am 23.4 27.6 23.2 99 0.1 SE 6 9 3 5 1011.4 1008.1 14.8
29/05:30am 23.3 27.5 23.1 99 0.1 SE 6 9 3 5 1011.0 1007.7 14.8
29/05:00am 23.4 28.8 23.2 99 0.1 CALM 0 0 0 0 1010.6 1007.4 14.8
29/04:30am 23.2 28.1 23.0 99 0.1 S 2 9 1 5 1010.5 1007.3 14.8
29/04:00am 23.3 28.6 23.1 99 0.1 CALM 0 0 0 0 1010.2 1007.0 14.8
29/03:30am 23.4 28.8 23.2 99 0.1 CALM 0 0 0 0 1010.1 1006.8 14.8
29/03:00am 23.7 28.7 23.2 97 0.3 SE 2 7 1 4 1009.9 1006.6 14.8
29/02:30am 23.5 28.5 23.2 98 0.2 WSW 2 9 1 5 1009.7 1006.4 14.8
29/02:00am 23.2 28.3 22.7 97 0.3 CALM 0 0 0 0 1010.1 1006.8 14.8
29/01:30am 23.8 28.2 22.8 94 0.7 SE 4 11 2 6 1010.0 1006.7 14.8
29/01:00am 23.9 27.0 22.9 94 0.7 S 11 15 6 8 1010.2 1007.0 14.8
29/12:30am 24.1 27.9 23.4 96 0.5 SE 9 11 5 6 1010.4 1007.2 14.8
29/12:00am 23.8 27.3 23.6 99 0.1 SSE 11 13 6 7 1011.0 1007.7 14.8
 
Date/Time
EST
Temp
°C
App
Temp
°C
Dew
Point
°C
Rel
Hum
%
Delta-T
°C
Wind Press
QNH
hPa
Press
MSL
hPa
Rain since
9am
mm
Dir  Spd
km/h
Gust
km/h
Spd
kts
Gust
kts
28/11:30pm 24.0 29.4 23.8 99 0.1 WSW 2 7 1 4 1011.1 1007.8 14.8
28/11:00pm 23.7 27.9 23.5 99 0.1 W 7 13 4 7 1011.5 1008.2 14.8
28/10:30pm 23.9 29.2 23.7 99 0.1 SE 2 9 1 5 1011.3 1008.0 14.8
28/10:00pm 23.8 28.1 23.6 99 0.1 SE 7 9 4 5 1011.1 1007.8 14.8
28/09:30pm 23.7 28.5 23.5 99 0.1 SE 4 9 2 5 1011.0 1007.7 14.8
28/09:00pm 24.1 28.5 23.8 98 0.2 SE 7 9 4 5 1010.9 1007.6 14.8
28/08:30pm 24.2 28.7 23.7 97 0.3 S 6 7 3 4 1011.0 1007.7 14.8
28/08:00pm 24.2 29.0 23.5 96 0.5 NNW 4 9 2 5 1010.4 1007.2 14.8
28/07:30pm 24.1 29.8 23.8 98 0.2 CALM 0 0 0 0 1009.4 1006.1 14.8
28/07:00pm 24.0 28.7 23.3 96 0.5 ESE 4 7 2 4 1009.4 1006.1 14.8
28/06:30pm 24.1 29.6 23.4 96 0.5 CALM 0 6 0 3 1009.3 1006.0 14.8
28/06:00pm 24.1 27.9 22.7 92 1.0 NE 7 11 4 6 1009.3 1006.0 14.8
28/05:30pm 24.7 29.1 22.8 89 1.3 SSE 4 9 2 5 1009.1 1005.8 14.8
28/05:12pm 24.4 26.9 21.7 85 1.8 SE 11 19 6 10 1009.1 1005.8 14.8
28/05:00pm 24.9 25.7 21.4 81 2.4 SE 19 28 10 15 1009.1 1005.8 14.8
28/04:59pm 25.0 25.9 21.5 81 2.4 SE 19 28 10 15 1009.1 1005.8 14.8
28/04:30pm 25.7 29.5 23.4 87 1.6 NW 9 15 5 8 1008.3 1005.1 14.8
28/04:00pm 26.4 30.5 23.3 83 2.2 N 7 11 4 6 1008.1 1004.8 14.8
28/03:30pm 26.6 30.1 23.5 83 2.2 N 11 17 6 9 1008.2 1004.9 14.6
28/03:00pm 25.8 30.4 23.8 89 1.4 NNE 6 11 3 6 1008.1 1004.8 14.6
28/02:37pm 24.8 28.5 23.9 95 0.6 ENE 11 20 6 11 1008.8 1005.5 14.6
28/02:30pm 24.5 27.3 23.6 95 0.6 NE 15 24 8 13 1008.7 1005.4 14.6
28/02:00pm 24.8 28.0 23.0 90 1.2 ESE 11 17 6 9 1009.1 1005.8 2.8
28/01:59pm 24.8 27.4 22.7 88 1.4 ESE 13 17 7 9 1009.0 1005.7 2.4
28/01:30pm 26.9 29.5 22.7 78 2.9 ESE 13 30 7 16 1009.1 1005.8 0.2
28/01:00pm 28.6 29.2 21.1 64 5.1 W 19 26 10 14 1008.9 1005.6 0.2
28/12:30pm 30.5 31.0 23.9 68 4.7 W 28 33 15 18 1009.2 1005.9 0.2
28/12:00pm 30.7 33.6 23.9 67 4.8 WNW 15 22 8 12 1009.8 1006.5 0.2
28/11:30am 30.4 33.3 23.8 68 4.6 WNW 15 20 8 11 1010.2 1007.0 0.2
28/11:00am 29.7 32.6 23.9 71 4.1 WNW 15 20 8 11 1010.5 1007.3 0.2
28/10:30am 29.4 32.6 24.3 74 3.6 WNW 15 19 8 10 1010.9 1007.6 0.2
28/10:00am 28.3 31.5 23.0 73 3.7 WNW 11 17 6 9 1011.1 1007.8 0.2
28/09:30am 27.0 30.9 22.6 77 3.0 NNE 6 9 3 5 1011.3 1008.0 0.0
28/09:00am 25.9 29.5 22.4 81 2.4 WNW 7 11 4 6 1011.3 1008.0 19.6
28/08:30am 24.7 28.6 22.6 88 1.4 NW 6 9 3 5 1011.1 1007.8 19.6
28/08:00am 23.5 28.7 22.8 96 0.5 CALM 0 0 0 0 1010.8 1007.5 19.6
28/07:30am 22.7 27.7 22.5 99 0.1 CALM 0 0 0 0 1010.6 1007.4 19.6
28/07:00am 22.4 27.2 22.2 99 0.1 CALM 0 0 0 0 1010.4 1007.2 19.6
28/06:42am 22.3 27.1 22.1 99 0.1 CALM 0 0 0 0 1010.4 1007.2 19.6
28/06:30am 22.3 27.1 22.1 99 0.1 CALM 0 0 0 0 1010.2 1007.0 19.6
28/06:00am 22.4 25.5 22.2 99 0.1 W 9 11 5 6 1010.0 1006.7 19.6
28/05:37am 22.5 24.9 22.3 99 0.1 W 13 17 7 9 1010.0 1006.7 19.6
28/05:30am 22.6 25.1 22.4 99 0.1 W 13 17 7 9 1010.0 1006.7 19.6
28/05:00am 22.4 25.9 22.2 99 0.1 WNW 7 11 4 6 1009.9 1006.6 19.6
28/04:30am 22.4 25.9 22.2 99 0.1 NW 7 9 4 5 1009.7 1006.4 19.6
28/04:00am 22.2 26.5 22.0 99 0.1 WNW 2 7 1 4 1009.8 1006.5 19.6
28/03:30am 22.2 26.9 22.0 99 0.1 CALM 0 0 0 0 1009.8 1006.5 19.6
28/03:00am 22.2 26.9 22.0 99 0.1 CALM 0 0 0 0 1009.9 1006.6 19.6
28/02:30am 22.4 25.5 22.2 99 0.1 NW 9 11 5 6 1009.7 1006.4 19.6
28/02:00am 22.3 25.4 22.1 99 0.1 NW 9 13 5 7 1010.0 1006.7 19.6
28/01:30am 22.2 25.8 22.0 99 0.1 NNW 6 11 3 6 1010.6 1007.4 19.6
28/01:00am 22.3 27.1 22.1 99 0.1 CALM 0 0 0 0 1011.2 1007.9 19.6
28/12:30am 22.5 27.3 22.2 98 0.2 CALM 0 0 0 0 1011.5 1008.2 19.6
28/12:00am 22.8 27.9 22.6 99 0.1 CALM 0 0 0 0 1011.8 1008.5 19.6
 
Date/Time
EST
Temp
°C
App
Temp
°C
Dew
Point
°C
Rel
Hum
%
Delta-T
°C
Wind Press
QNH
hPa
Press
MSL
hPa
Rain since
9am
mm
Dir  Spd
km/h
Gust
km/h
Spd
kts
Gust
kts
27/11:30pm 22.9 28.0 22.7 99 0.1 CALM 0 0 0 0 1012.0 1008.7 19.6
27/11:00pm 23.1 27.6 22.9 99 0.1 WSW 4 9 2 5 1012.2 1009.0 19.6
27/10:30pm 23.0 26.8 22.8 99 0.1 S 7 9 4 5 1012.5 1009.3 19.6
27/10:00pm 22.7 26.6 22.5 99 0.1 NNW 6 9 3 5 1012.5 1009.3 19.6
27/09:30pm 22.9 27.2 22.7 99 0.1 NNW 4 7 2 4 1013.0 1009.7 19.2
27/09:00pm 22.8 26.7 22.5 98 0.2 NNW 6 9 3 5 1012.7 1009.5 18.6
27/08:30pm 23.1 26.4 22.6 97 0.3 W 9 11 5 6 1012.7 1009.5 18.2
27/08:05pm 23.0 26.2 22.3 96 0.5 SSE 9 13 5 7 1012.4 1009.2 18.2
27/08:00pm 23.0 26.2 22.3 96 0.5 SSE 9 13 5 7 1012.3 1009.1 18.2
27/07:30pm 22.8 25.3 22.5 98 0.2 SE 13 17 7 9 1012.0 1008.7 18.2
27/07:00pm 22.6 26.3 22.3 98 0.2 ENE 6 9 3 5 1011.6 1008.3 18.2
27/06:30pm 22.6 25.8 22.3 98 0.2 NE 9 15 5 8 1011.0 1007.7 18.2
27/06:28pm 22.6 25.8 22.3 98 0.2 NE 9 15 5 8 1010.9 1007.6 18.2
27/06:23pm 22.6 25.8 22.3 98 0.2 NNE 9 15 5 8 1010.9 1007.6 18.2
27/06:01pm 23.3 27.4 22.3 94 0.7 WNW 4 9 2 5 1009.9 1006.6 15.2
27/06:00pm 23.4 27.6 22.4 94 0.7 WNW 4 9 2 5 1009.9 1006.6 14.6
27/05:30pm 23.7 26.3 22.0 90 1.2 E 11 17 6 9 1009.5 1006.2 11.8
27/05:00pm 24.9 28.4 23.5 92 1.0 E 11 17 6 9 1009.1 1005.8 10.2
27/04:30pm 25.2 27.3 23.8 92 1.0 SSE 19 26 10 14 1007.5 1004.2 10.0
27/04:08pm 25.5 27.6 24.1 92 1.0 SE 20 26 11 14 1007.8 1004.5 10.0
27/04:00pm 25.3 27.2 23.7 91 1.1 SE 20 26 11 14 1008.0 1004.7 9.8
27/03:41pm 27.7 30.3 22.0 71 3.9 WSW 11 22 6 12 1008.0 1004.7 4.0
27/03:30pm 30.4 34.4 23.1 65 5.1 NW 7 17 4 9 1007.3 1004.0 1.0
27/03:00pm 31.5 35.4 23.6 63 5.6 N 9 15 5 8 1007.1 1003.8 1.0
27/02:30pm 29.9 34.5 24.8 74 3.6 NE 9 13 5 7 1007.8 1004.5 1.0
27/02:27pm 29.8 34.4 24.7 74 3.6 NE 9 13 5 7 1007.9 1004.6 1.0
27/02:11pm 27.6 28.8 22.5 74 3.5 NNW 20 33 11 18 1008.3 1005.1 0.6
27/02:00pm 31.3 34.3 22.0 57 6.4 NNW 9 19 5 10 1008.3 1005.1 0.0
27/01:30pm 31.5 33.4 21.4 55 6.9 NNE 13 20 7 11 1008.8 1005.5 0.0
27/01:00pm 32.3 35.1 21.5 53 7.4 NNW 9 17 5 9 1009.6 1006.3 0.0
27/12:30pm 32.0 34.4 21.5 53 7.2 W 11 19 6 10 1010.4 1007.2 0.0
27/12:00pm 31.4 33.4 21.6 56 6.7 WNW 13 20 7 11 1011.0 1007.7 0.0
27/11:30am 30.8 33.3 22.4 61 5.8 WNW 13 20 7 11 1011.2 1007.9 0.0
27/11:00am 30.2 32.9 22.9 65 5.1 NW 13 19 7 10 1011.7 1008.4 0.0
27/10:30am 28.9 33.0 23.3 72 3.9 NNW 7 13 4 7 1012.0 1008.7 0.0
27/10:08am 28.8 32.7 23.0 71 4.0 W 7 13 4 7 1012.2 1009.0 0.0
27/10:00am 28.4 32.1 23.3 74 3.6 WNW 9 15 5 8 1012.2 1009.0 0.0
27/09:33am 27.8 31.8 23.8 79 2.8 NNW 9 13 5 7 1012.3 1009.1 0.0
27/09:30am 27.9 32.0 23.9 79 2.8 NNW 9 13 5 7 1012.3 1009.1 0.0
27/09:00am 26.8 30.5 23.9 84 2.0 WNW 11 15 6 8 1012.3 1009.1 0.2
27/08:30am 26.0 29.7 23.9 88 1.5 WNW 11 15 6 8 1012.4 1009.2 0.2
27/08:00am 25.9 30.6 24.3 91 1.1 NW 7 11 4 6 1012.4 1009.2 0.2
27/07:30am 24.7 30.1 23.3 92 1.0 CALM 0 0 0 0 1012.1 1008.8 0.2
27/07:00am 23.3 28.4 22.6 96 0.5 CALM 0 0 0 0 1011.7 1008.4 0.2
27/06:30am 23.1 27.9 22.8 98 0.2 SE 2 6 1 3 1011.4 1008.1 0.2
27/06:00am 23.0 27.4 22.8 99 0.1 SE 4 7 2 4 1011.1 1007.8 0.2
27/05:30am 22.9 26.8 22.6 98 0.2 SE 6 9 3 5 1010.9 1007.6 0.2
27/05:16am 23.1 28.3 22.8 98 0.2 CALM 0 0 0 0 1010.8 1007.5 0.2
27/05:00am 23.0 28.1 22.7 98 0.2 CALM 0 0 0 0 1010.6 1007.4 0.2
27/04:30am 22.9 28.0 22.6 98 0.2 CALM 0 6 0 3 1010.3 1007.1 0.2
27/04:24am 23.1 28.2 22.6 97 0.3 CALM 0 0 0 0 1010.3 1007.1 0.2
27/04:00am 23.1 28.2 22.6 97 0.3 CALM 0 0 0 0 1010.2 1007.0 0.2
27/03:30am 23.3 28.4 22.6 96 0.5 CALM 0 0 0 0 1010.2 1007.0 0.2
27/03:00am 23.5 28.7 22.8 96 0.5 CALM 0 0 0 0 1010.2 1007.0 0.2
27/02:30am 23.7 28.3 23.2 97 0.3 S 4 7 2 4 1010.5 1007.3 0.2
27/02:00am 24.0 29.3 23.1 95 0.6 CALM 0 0 0 0 1011.1 1007.8 0.2
27/01:30am 24.1 29.6 23.4 96 0.5 CALM 0 0 0 0 1011.4 1008.1 0.2
27/01:04am 24.2 29.4 22.8 92 1.0 CALM 0 0 0 0 1011.6 1008.3 0.2
27/01:00am 24.2 29.5 23.0 93 0.8 CALM 0 0 0 0 1011.7 1008.4 0.2
27/12:32am 24.2 29.6 23.3 95 0.6 CALM 0 0 0 0 1011.9 1008.6 0.2
27/12:30am 24.2 29.6 23.3 95 0.6 CALM 0 0 0 0 1011.9 1008.6 0.2
27/12:00am 24.1 29.4 23.1 94 0.7 CALM 0 0 0 0 1012.2 1009.0 0.2
 
Date/Time
EST
Temp
°C
App
Temp
°C
Dew
Point
°C
Rel
Hum
%
Delta-T
°C
Wind Press
QNH
hPa
Press
MSL
hPa
Rain since
9am
mm
Dir  Spd
km/h
Gust
km/h
Spd
kts
Gust
kts
26/11:30pm 24.2 29.6 23.2 94 0.7 CALM 0 0 0 0 1012.3 1009.1 0.2
26/11:00pm 24.7 29.9 22.9 90 1.2 CALM 0 0 0 0 1012.5 1009.3 0.2
26/10:30pm 24.7 29.0 22.6 88 1.4 ENE 4 9 2 5 1012.6 1009.4 0.2
26/10:00pm 24.6 29.3 22.7 89 1.3 ESE 2 6 1 3 1012.5 1009.3 0.2
26/09:30pm 24.9 30.1 22.8 88 1.4 CALM 0 0 0 0 1012.2 1009.0 0.2
26/09:00pm 25.5 30.4 22.4 83 2.1 CALM 0 0 0 0 1011.9 1008.6 0.2
26/08:30pm 25.5 30.3 22.2 82 2.2 CALM 0 0 0 0 1011.4 1008.1 0.2
26/08:00pm 26.1 30.2 22.2 79 2.7 ENE 4 7 2 4 1011.3 1008.0 0.2
26/07:30pm 26.5 30.0 22.1 77 3.0 E 7 9 4 5 1010.8 1007.5 0.2
26/07:00pm 27.0 30.6 22.0 74 3.4 ENE 6 9 3 5 1010.4 1007.2 0.2
26/06:30pm 27.4 31.0 22.1 73 3.6 NNE 6 9 3 5 1010.2 1007.0 0.2
26/06:00pm 28.0 30.9 21.8 69 4.2 NNE 9 15 5 8 1009.7 1006.4 0.2
26/05:30pm 28.8 30.7 21.3 64 5.1 N 13 20 7 11 1009.3 1006.0 0.2
26/05:00pm 28.8 31.7 23.2 71 3.9 NNE 13 20 7 11 1009.2 1005.9 0.2
26/04:30pm 29.1 31.0 22.8 69 4.4 NNE 17 24 9 13 1009.1 1005.8 0.2
26/04:00pm 31.4 34.2 23.0 61 5.9 N 13 20 7 11 1008.9 1005.6 0.2
26/03:30pm 31.5 34.7 21.7 56 6.7 NNE 7 11 4 6 1008.9 1005.6 0.2
26/03:00pm 31.7 34.7 21.2 53 7.2 NW 7 15 4 8 1009.3 1006.0 0.2
26/02:30pm 31.7 35.0 21.5 54 7.0 NNW 6 11 3 6 1009.7 1006.4 0.2
26/02:00pm 31.2 34.5 21.9 57 6.4 WNW 7 15 4 8 1010.0 1006.7 0.2

Other formats

Comma delimited format used in spreadsheet applications
http://www.bom.gov.au/fwo/IDQ60801/IDQ60801.95286.axf

JavaScript Object Notation format (JSON) in row-major order
http://www.bom.gov.au/fwo/IDQ60801/IDQ60801.95286.json

Data quality

Most of these data are generated automatically and are frequently updated. Quality checks on data are not normally performed. It is possible for incorrect values to appear. Refer to information at About Latest Weather Observations and please check the disclaimer before using these data.